createdAt,value
2018-04-10T00:00:01.957Z,803.3
2018-04-10T00:00:05.956Z,803.3
2018-04-10T00:00:10.051Z,803.25
2018-04-10T00:00:14.356Z,803.29
2018-04-10T00:00:18.443Z,803.28
2018-04-10T00:00:22.751Z,803.28
2018-04-10T00:00:27.053Z,803.29
2018-04-10T00:00:31.253Z,803.25
2018-04-10T00:00:35.456Z,803.28
2018-04-10T00:00:39.558Z,803.27
2018-04-10T00:00:43.663Z,803.28
2018-04-10T00:00:47.753Z,803.22
2018-04-10T00:00:51.849Z,803.28
2018-04-10T00:00:55.945Z,803.29
2018-04-10T00:01:00.048Z,803.28
2018-04-10T00:01:04.044Z,803.26
2018-04-10T00:01:07.817Z,803.26
2018-04-10T00:01:11.918Z,803.25
2018-04-10T00:01:16.122Z,803.27
2018-04-10T00:01:20.319Z,803.27
2018-04-10T00:01:24.524Z,803.26
2018-04-10T00:01:28.512Z,803.29
2018-04-10T00:01:32.717Z,803.24
2018-04-10T00:01:36.909Z,803.25
2018-04-10T00:01:41.212Z,803.28
2018-04-10T00:01:45.416Z,803.24
2018-04-10T00:01:49.618Z,803.25
2018-04-10T00:01:53.929Z,803.21
2018-04-10T00:01:58.016Z,803.21
2018-04-10T00:02:02.378Z,803.26
2018-04-10T00:02:06.485Z,803.24
2018-04-10T00:02:10.473Z,803.22
2018-04-10T00:02:14.711Z,803.25
2018-04-10T00:02:18.696Z,803.24
2018-04-10T00:02:22.790Z,803.25
2018-04-10T00:02:26.984Z,803.17
2018-04-10T00:02:31.187Z,803.21
2018-04-10T00:02:35.387Z,803.22
2018-04-10T00:02:39.479Z,803.23
2018-04-10T00:02:43.570Z,803.2
2018-04-10T00:02:47.554Z,803.25
2018-04-10T00:02:51.434Z,803.23
2018-04-10T00:02:55.740Z,803.22
2018-04-10T00:03:00.047Z,803.22
2018-04-10T00:03:04.140Z,803.22
2018-04-10T00:03:08.374Z,803.21
2018-04-10T00:03:12.372Z,803.21
2018-04-10T00:03:16.466Z,803.23
2018-04-10T00:03:20.553Z,803.23
2018-04-10T00:03:24.535Z,803.26
2018-04-10T00:03:28.744Z,803.24
2018-04-10T00:03:32.731Z,803.27
2018-04-10T00:03:36.932Z,803.25
2018-04-10T00:03:41.124Z,803.25
2018-04-10T00:03:45.224Z,803.24
2018-04-10T00:03:49.541Z,803.25
2018-04-10T00:03:53.739Z,803.26
2018-04-10T00:03:57.835Z,803.25
2018-04-10T00:04:02.040Z,803.28
2018-04-10T00:04:06.129Z,803.26
2018-04-10T00:04:10.222Z,803.25
2018-04-10T00:04:14.312Z,803.26
2018-04-10T00:04:18.514Z,803.25
2018-04-10T00:04:22.609Z,803.26
2018-04-10T00:04:26.712Z,803.25
2018-04-10T00:04:30.804Z,803.24
2018-04-10T00:04:34.789Z,803.24
2018-04-10T00:04:39.094Z,803.22
2018-04-10T00:04:43.293Z,803.21
2018-04-10T00:04:47.485Z,803.24
2018-04-10T00:04:51.691Z,803.22
2018-04-10T00:04:55.995Z,803.22
2018-04-10T00:05:00.085Z,803.25
2018-04-10T00:05:04.127Z,803.2
2018-04-10T00:05:08.229Z,803.25
2018-04-10T00:05:12.323Z,803.27
2018-04-10T00:05:16.630Z,803.25
2018-04-10T00:05:20.720Z,803.24
2018-04-10T00:05:25.024Z,803.23
2018-04-10T00:05:29.235Z,803.24
2018-04-10T00:05:33.552Z,803.27
2018-04-10T00:05:37.857Z,803.25
2018-04-10T00:05:41.944Z,803.24
2018-04-10T00:05:45.829Z,803.23
2018-04-10T00:05:50.034Z,803.25
2018-04-10T00:05:54.236Z,803.27
2018-04-10T00:05:58.436Z,803.23
2018-04-10T00:06:02.661Z,803.22
2018-04-10T00:06:06.546Z,803.18
2018-04-10T00:06:10.639Z,803.18
2018-04-10T00:06:14.840Z,803.23
2018-04-10T00:06:18.828Z,803.28
2018-04-10T00:06:23.137Z,803.26
2018-04-10T00:06:27.372Z,803.25
2018-04-10T00:06:31.577Z,803.22
2018-04-10T00:06:35.891Z,803.25
2018-04-10T00:06:39.995Z,803.25
2018-04-10T00:06:44.194Z,803.23
2018-04-10T00:06:48.294Z,803.28
2018-04-10T00:06:52.387Z,803.22
2018-04-10T00:06:56.584Z,803.25
2018-04-10T00:07:00.862Z,803.24
2018-04-10T00:07:05.197Z,803.25
2018-04-10T00:07:09.540Z,803.21
2018-04-10T00:07:13.795Z,803.24
2018-04-10T00:07:17.995Z,803.25
2018-04-10T00:07:21.985Z,803.25
2018-04-10T00:07:26.182Z,803.23
2018-04-10T00:07:30.281Z,803.23
2018-04-10T00:07:34.480Z,803.22
2018-04-10T00:07:38.781Z,803.23
2018-04-10T00:07:42.873Z,803.27
2018-04-10T00:07:47.183Z,803.23
2018-04-10T00:07:51.380Z,803.21
2018-04-10T00:07:55.579Z,803.25
2018-04-10T00:07:59.687Z,803.23
2018-04-10T00:08:03.875Z,803.22
2018-04-10T00:08:07.864Z,803.23
2018-04-10T00:08:12.062Z,803.23
2018-04-10T00:08:16.265Z,803.22
2018-04-10T00:08:20.150Z,803.24
2018-04-10T00:08:24.132Z,803.23
2018-04-10T00:08:28.444Z,803.27
2018-04-10T00:08:32.428Z,803.27
2018-04-10T00:08:36.630Z,803.24
2018-04-10T00:08:40.718Z,803.25
2018-04-10T00:08:45.023Z,803.27
2018-04-10T00:08:49.132Z,803.24
2018-04-10T00:08:53.015Z,803.25
2018-04-10T00:08:57.321Z,803.29
2018-04-10T00:09:01.411Z,803.27
2018-04-10T00:09:05.653Z,803.2
2018-04-10T00:09:09.864Z,803.19
2018-04-10T00:09:14.166Z,803.25
2018-04-10T00:09:18.471Z,803.26
2018-04-10T00:09:22.458Z,803.23
2018-04-10T00:09:26.553Z,803.25
2018-04-10T00:09:30.429Z,803.28
2018-04-10T00:09:34.635Z,803.26
2018-04-10T00:09:38.946Z,803.3
2018-04-10T00:09:42.826Z,803.3
2018-04-10T00:09:46.961Z,803.28
2018-04-10T00:09:50.948Z,803.29
2018-04-10T00:09:55.258Z,803.3
2018-04-10T00:09:59.352Z,803.29
2018-04-10T00:10:03.687Z,803.3
2018-04-10T00:10:07.675Z,803.31
2018-04-10T00:10:11.869Z,803.32
2018-04-10T00:10:16.170Z,803.29
2018-04-10T00:10:20.261Z,803.32
2018-04-10T00:10:24.454Z,803.32
2018-04-10T00:10:28.653Z,803.33
2018-04-10T00:10:32.636Z,803.3
2018-04-10T00:10:36.622Z,803.34
2018-04-10T00:10:40.817Z,803.32
2018-04-10T00:10:44.697Z,803.27
2018-04-10T00:10:48.792Z,803.32
2018-04-10T00:10:53.099Z,803.31
2018-04-10T00:10:57.194Z,803.33
2018-04-10T00:11:01.426Z,803.27
2018-04-10T00:11:05.408Z,803.32
2018-04-10T00:11:09.501Z,803.32
2018-04-10T00:11:13.600Z,803.32
2018-04-10T00:11:17.692Z,803.27
2018-04-10T00:11:21.992Z,803.3
2018-04-10T00:11:26.203Z,803.29
2018-04-10T00:11:30.296Z,803.28
2018-04-10T00:11:34.499Z,803.26
2018-04-10T00:11:38.592Z,803.34
2018-04-10T00:11:42.790Z,803.32
2018-04-10T00:11:46.884Z,803.33
2018-04-10T00:11:50.770Z,803.33
2018-04-10T00:11:55.080Z,803.32
2018-04-10T00:11:59.388Z,803.33
2018-04-10T00:12:03.586Z,803.28
2018-04-10T00:12:07.678Z,803.29
2018-04-10T00:12:11.896Z,803.3
2018-04-10T00:12:16.205Z,803.32
2018-04-10T00:12:20.410Z,803.32
2018-04-10T00:12:24.293Z,803.33
2018-04-10T00:12:28.492Z,803.35
2018-04-10T00:12:32.475Z,803.34
2018-04-10T00:12:36.669Z,803.29
2018-04-10T00:12:40.874Z,803.34
2018-04-10T00:12:45.082Z,803.32
2018-04-10T00:12:48.965Z,803.36
2018-04-10T00:12:53.060Z,803.35
2018-04-10T00:12:57.152Z,803.33
2018-04-10T00:13:01.357Z,803.32
2018-04-10T00:13:05.705Z,803.33
2018-04-10T00:13:09.692Z,803.35
2018-04-10T00:13:13.896Z,803.32
2018-04-10T00:13:17.880Z,803.33
2018-04-10T00:13:22.077Z,803.32
2018-04-10T00:13:26.063Z,803.36
2018-04-10T00:13:30.264Z,803.33
2018-04-10T00:13:34.357Z,803.34
2018-04-10T00:13:38.446Z,803.35
2018-04-10T00:13:42.440Z,803.37
2018-04-10T00:13:46.748Z,803.34
2018-04-10T00:13:50.943Z,803.34
2018-04-10T00:13:55.247Z,803.35
2018-04-10T00:13:59.447Z,803.34
2018-04-10T00:14:03.886Z,803.34
2018-04-10T00:14:08.083Z,803.34
2018-04-10T00:14:12.069Z,803.33
2018-04-10T00:14:16.269Z,803.33
2018-04-10T00:14:20.471Z,803.33
2018-04-10T00:14:24.457Z,803.33
2018-04-10T00:14:28.661Z,803.32
2018-04-10T00:14:32.855Z,803.35
2018-04-10T00:14:37.151Z,803.35
2018-04-10T00:14:41.244Z,803.34
2018-04-10T00:14:45.445Z,803.35
2018-04-10T00:14:49.534Z,803.35
2018-04-10T00:14:53.839Z,803.33
2018-04-10T00:14:57.821Z,803.32
2018-04-10T00:15:02.023Z,803.33
2018-04-10T00:15:06.127Z,803.33
2018-04-10T00:15:10.330Z,803.34
2018-04-10T00:15:14.209Z,803.34
2018-04-10T00:15:18.089Z,803.32
2018-04-10T00:15:22.288Z,803.35
2018-04-10T00:15:26.482Z,803.31
2018-04-10T00:15:30.586Z,803.35
2018-04-10T00:15:34.568Z,803.33
2018-04-10T00:15:38.768Z,803.35
2018-04-10T00:15:42.861Z,803.31
2018-04-10T00:15:46.637Z,803.33
2018-04-10T00:15:50.836Z,803.33
2018-04-10T00:15:55.032Z,803.27
2018-04-10T00:15:59.252Z,803.34
2018-04-10T00:16:03.561Z,803.32
2018-04-10T00:16:07.651Z,803.3
2018-04-10T00:16:11.849Z,803.35
2018-04-10T00:16:16.157Z,803.3
2018-04-10T00:16:20.242Z,803.33
2018-04-10T00:16:24.473Z,803.29
2018-04-10T00:16:28.566Z,803.32
2018-04-10T00:16:32.764Z,803.26
2018-04-10T00:16:36.753Z,803.26
2018-04-10T00:16:40.633Z,803.3
2018-04-10T00:16:44.838Z,803.27
2018-04-10T00:16:48.925Z,803.25
2018-04-10T00:16:53.119Z,803.32
2018-04-10T00:16:57.118Z,803.28
2018-04-10T00:17:01.098Z,803.28
2018-04-10T00:17:05.134Z,803.31
2018-04-10T00:17:09.339Z,803.28
2018-04-10T00:17:13.642Z,803.27
2018-04-10T00:17:17.836Z,803.23
2018-04-10T00:17:22.151Z,803.27
2018-04-10T00:17:26.355Z,803.32
2018-04-10T00:17:30.232Z,803.29
2018-04-10T00:17:34.325Z,803.26
2018-04-10T00:17:38.632Z,803.29
2018-04-10T00:17:42.824Z,803.31
2018-04-10T00:17:46.914Z,803.29
2018-04-10T00:17:51.252Z,803.23
2018-04-10T00:17:55.454Z,803.26
2018-04-10T00:17:59.652Z,803.3
2018-04-10T00:18:04.007Z,803.29
2018-04-10T00:18:07.992Z,803.28
2018-04-10T00:18:12.296Z,803.23
2018-04-10T00:18:16.497Z,803.29
2018-04-10T00:18:20.804Z,803.29
2018-04-10T00:18:25.002Z,803.28
2018-04-10T00:18:28.995Z,803.28
2018-04-10T00:18:33.090Z,803.26
2018-04-10T00:18:37.401Z,803.27
2018-04-10T00:18:41.495Z,803.25
2018-04-10T00:18:45.803Z,803.23
2018-04-10T00:18:50.011Z,803.28
2018-04-10T00:18:54.209Z,803.29
2018-04-10T00:18:58.402Z,803.23
2018-04-10T00:19:02.282Z,803.29
2018-04-10T00:19:06.477Z,803.28
2018-04-10T00:19:10.785Z,803.23
2018-04-10T00:19:14.877Z,803.25
2018-04-10T00:19:19.184Z,803.25
2018-04-10T00:19:23.379Z,803.27
2018-04-10T00:19:27.370Z,803.28
2018-04-10T00:19:31.459Z,803.26
2018-04-10T00:19:35.549Z,803.21
2018-04-10T00:19:39.855Z,803.24
2018-04-10T00:19:44.171Z,803.28
2018-04-10T00:19:48.361Z,803.28
2018-04-10T00:19:52.666Z,803.23
2018-04-10T00:19:56.762Z,803.25
2018-04-10T00:20:00.956Z,803.23
2018-04-10T00:20:05.199Z,803.24
2018-04-10T00:20:09.398Z,803.2
2018-04-10T00:20:13.607Z,803.25
2018-04-10T00:20:17.697Z,803.25
2018-04-10T00:20:21.788Z,803.25
2018-04-10T00:20:25.982Z,803.27
2018-04-10T00:20:30.082Z,803.25
2018-04-10T00:20:34.390Z,803.25
2018-04-10T00:20:38.582Z,803.25
2018-04-10T00:20:42.795Z,803.26
2018-04-10T00:20:46.999Z,803.26
2018-04-10T00:20:51.089Z,803.28
2018-04-10T00:20:55.392Z,803.23
2018-04-10T00:20:59.375Z,803.26
2018-04-10T00:21:03.306Z,803.2
2018-04-10T00:21:07.191Z,803.27
2018-04-10T00:21:11.281Z,803.28
2018-04-10T00:21:15.584Z,803.26
2018-04-10T00:21:19.688Z,803.26
2018-04-10T00:21:23.776Z,803.22
2018-04-10T00:21:27.867Z,803.27
2018-04-10T00:21:32.101Z,803.24
2018-04-10T00:21:36.301Z,803.25
2018-04-10T00:21:40.602Z,803.25
2018-04-10T00:21:44.797Z,803.28
2018-04-10T00:21:48.995Z,803.29
2018-04-10T00:21:53.190Z,803.28
2018-04-10T00:21:57.394Z,803.25
2018-04-10T00:22:01.692Z,803.24
2018-04-10T00:22:05.785Z,803.25
2018-04-10T00:22:09.885Z,803.3
2018-04-10T00:22:14.084Z,803.27
2018-04-10T00:22:18.390Z,803.27
2018-04-10T00:22:22.379Z,803.27
2018-04-10T00:22:26.577Z,803.21
2018-04-10T00:22:30.560Z,803.23
2018-04-10T00:22:34.756Z,803.26
2018-04-10T00:22:39.066Z,803.29
2018-04-10T00:22:43.273Z,803.25
2018-04-10T00:22:47.365Z,803.2
2018-04-10T00:22:51.568Z,803.27
2018-04-10T00:22:55.769Z,803.28
2018-04-10T00:23:00.075Z,803.27
2018-04-10T00:23:04.409Z,803.27
2018-04-10T00:23:08.501Z,803.27
2018-04-10T00:23:12.701Z,803.27
2018-04-10T00:23:16.796Z,803.3
2018-04-10T00:23:20.996Z,803.32
2018-04-10T00:23:25.296Z,803.25
2018-04-10T00:23:29.387Z,803.25
2018-04-10T00:23:33.690Z,803.22
2018-04-10T00:23:37.888Z,803.31
2018-04-10T00:23:41.871Z,803.29
2018-04-10T00:23:46.069Z,803.26
2018-04-10T00:23:50.272Z,803.33
2018-04-10T00:23:54.269Z,803.32
2018-04-10T00:23:58.256Z,803.28
2018-04-10T00:24:02.564Z,803.3
2018-04-10T00:24:06.761Z,803.3
2018-04-10T00:24:10.754Z,803.31
2018-04-10T00:24:14.954Z,803.3
2018-04-10T00:24:19.155Z,803.3
2018-04-10T00:24:23.039Z,803.32
2018-04-10T00:24:27.249Z,803.29
2018-04-10T00:24:31.453Z,803.31
2018-04-10T00:24:35.445Z,803.3
2018-04-10T00:24:39.643Z,803.31
2018-04-10T00:24:43.743Z,803.29
2018-04-10T00:24:48.085Z,803.33
2018-04-10T00:24:52.181Z,803.31
2018-04-10T00:24:56.479Z,803.31
2018-04-10T00:25:00.682Z,803.31
2018-04-10T00:25:04.778Z,803.32
2018-04-10T00:25:08.972Z,803.33
2018-04-10T00:25:13.175Z,803.32
2018-04-10T00:25:17.481Z,803.3
2018-04-10T00:25:21.568Z,803.31
2018-04-10T00:25:25.873Z,803.29
2018-04-10T00:25:30.104Z,803.31
2018-04-10T00:25:34.091Z,803.34
2018-04-10T00:25:38.288Z,803.31
2018-04-10T00:25:42.480Z,803.3
2018-04-10T00:25:46.686Z,803.3
2018-04-10T00:25:50.673Z,803.29
2018-04-10T00:25:54.871Z,803.32
2018-04-10T00:25:59.081Z,803.34
2018-04-10T00:26:03.433Z,803.36
2018-04-10T00:26:07.207Z,803.31
2018-04-10T00:26:11.303Z,803.36
2018-04-10T00:26:15.503Z,803.36
2018-04-10T00:26:19.489Z,803.36
2018-04-10T00:26:23.690Z,803.35
2018-04-10T00:26:27.811Z,803.37
2018-04-10T00:26:32.008Z,803.33
2018-04-10T00:26:36.207Z,803.35
2018-04-10T00:26:40.193Z,803.31
2018-04-10T00:26:44.280Z,803.37
2018-04-10T00:26:48.485Z,803.35
2018-04-10T00:26:52.691Z,803.35
2018-04-10T00:26:56.785Z,803.29
2018-04-10T00:27:00.988Z,803.34
2018-04-10T00:27:05.186Z,803.33
2018-04-10T00:27:09.068Z,803.38
2018-04-10T00:27:13.157Z,803.34
2018-04-10T00:27:17.248Z,803.35
2018-04-10T00:27:21.549Z,803.31
2018-04-10T00:27:25.744Z,803.36
2018-04-10T00:27:29.938Z,803.36
2018-04-10T00:27:33.921Z,803.32
2018-04-10T00:27:38.117Z,803.32
2018-04-10T00:27:42.312Z,803.34
2018-04-10T00:27:46.404Z,803.36
2018-04-10T00:27:50.610Z,803.39
2018-04-10T00:27:54.918Z,803.35
2018-04-10T00:27:59.218Z,803.32
2018-04-10T00:28:03.313Z,803.35
2018-04-10T00:28:07.619Z,803.37
2018-04-10T00:28:11.710Z,803.38
2018-04-10T00:28:16.011Z,803.3
2018-04-10T00:28:20.126Z,803.3
2018-04-10T00:28:24.332Z,803.32
2018-04-10T00:28:28.428Z,803.37
2018-04-10T00:28:32.531Z,803.39
2018-04-10T00:28:36.729Z,803.36
2018-04-10T00:28:40.936Z,803.38
2018-04-10T00:28:45.030Z,803.36
2018-04-10T00:28:49.137Z,803.36
2018-04-10T00:28:53.017Z,803.38
2018-04-10T00:28:57.346Z,803.38
2018-04-10T00:29:01.432Z,803.35
2018-04-10T00:29:05.418Z,803.37
2018-04-10T00:29:09.511Z,803.39
2018-04-10T00:29:13.606Z,803.36
2018-04-10T00:29:17.487Z,803.37
2018-04-10T00:29:21.479Z,803.38
2018-04-10T00:29:25.575Z,803.37
2018-04-10T00:29:29.669Z,803.4
2018-04-10T00:29:33.866Z,803.37
2018-04-10T00:29:38.069Z,803.34
2018-04-10T00:29:42.169Z,803.36
2018-04-10T00:29:46.366Z,803.38
2018-04-10T00:29:50.678Z,803.42
2018-04-10T00:29:54.983Z,803.39
2018-04-10T00:29:59.215Z,803.35
2018-04-10T00:30:03.510Z,803.33
2018-04-10T00:30:07.719Z,803.38
2018-04-10T00:30:11.936Z,803.38
2018-04-10T00:30:16.133Z,803.4
2018-04-10T00:30:20.333Z,803.4
2018-04-10T00:30:24.431Z,803.35
2018-04-10T00:30:28.633Z,803.4
2018-04-10T00:30:32.728Z,803.43
2018-04-10T00:30:36.929Z,803.4
2018-04-10T00:30:41.152Z,803.37
2018-04-10T00:30:45.248Z,803.4
2018-04-10T00:30:49.449Z,803.4
2018-04-10T00:30:53.650Z,803.44
2018-04-10T00:30:57.863Z,803.43
2018-04-10T00:31:02.321Z,803.43
2018-04-10T00:31:06.534Z,803.44
2018-04-10T00:31:10.731Z,803.44
2018-04-10T00:31:14.821Z,803.39
2018-04-10T00:31:19.142Z,803.4
2018-04-10T00:31:23.241Z,803.4
2018-04-10T00:31:27.329Z,803.4
2018-04-10T00:31:31.634Z,803.41
2018-04-10T00:31:35.726Z,803.42
2018-04-10T00:31:39.818Z,803.43
2018-04-10T00:31:44.021Z,803.38
2018-04-10T00:31:48.007Z,803.41
2018-04-10T00:31:52.205Z,803.38
2018-04-10T00:31:56.296Z,803.38
2018-04-10T00:32:00.391Z,803.42
2018-04-10T00:32:04.734Z,803.44
2018-04-10T00:32:08.721Z,803.42
2018-04-10T00:32:12.926Z,803.43
2018-04-10T00:32:17.023Z,803.41
2018-04-10T00:32:21.331Z,803.41
2018-04-10T00:32:25.320Z,803.41
2018-04-10T00:32:29.308Z,803.39
2018-04-10T00:32:33.400Z,803.42
2018-04-10T00:32:37.744Z,803.45
2018-04-10T00:32:41.727Z,803.4
2018-04-10T00:32:45.817Z,803.44
2018-04-10T00:32:50.015Z,803.45
2018-04-10T00:32:54.314Z,803.46
2018-04-10T00:32:58.516Z,803.45
2018-04-10T00:33:03.013Z,803.45
2018-04-10T00:33:07.105Z,803.45
2018-04-10T00:33:11.318Z,803.43
2018-04-10T00:33:15.201Z,803.44
2018-04-10T00:33:19.190Z,803.44
2018-04-10T00:33:23.388Z,803.44
2018-04-10T00:33:27.376Z,803.44
2018-04-10T00:33:31.570Z,803.44
2018-04-10T00:33:35.656Z,803.4
2018-04-10T00:33:39.749Z,803.45
2018-04-10T00:33:43.942Z,803.4
2018-04-10T00:33:48.032Z,803.43
2018-04-10T00:33:52.227Z,803.44
2018-04-10T00:33:56.325Z,803.47
2018-04-10T00:34:00.521Z,803.44
2018-04-10T00:34:04.613Z,803.43
2018-04-10T00:34:08.920Z,803.41
2018-04-10T00:34:13.228Z,803.45
2018-04-10T00:34:17.426Z,803.45
2018-04-10T00:34:21.626Z,803.43
2018-04-10T00:34:25.733Z,803.44
2018-04-10T00:34:30.037Z,803.45
2018-04-10T00:34:34.342Z,803.44
2018-04-10T00:34:38.432Z,803.39
2018-04-10T00:34:42.736Z,803.43
2018-04-10T00:34:46.826Z,803.45
2018-04-10T00:34:51.124Z,803.45
2018-04-10T00:34:55.320Z,803.44
2018-04-10T00:34:59.517Z,803.47
2018-04-10T00:35:03.772Z,803.48
2018-04-10T00:35:07.866Z,803.45
2018-04-10T00:35:12.167Z,803.44
2018-04-10T00:35:16.376Z,803.4
2018-04-10T00:35:20.683Z,803.45
2018-04-10T00:35:25.000Z,803.47
2018-04-10T00:35:29.202Z,803.46
2018-04-10T00:35:33.294Z,803.41
2018-04-10T00:35:37.492Z,803.45
2018-04-10T00:35:41.695Z,803.48
2018-04-10T00:35:45.788Z,803.46
2018-04-10T00:35:50.098Z,803.45
2018-04-10T00:35:54.401Z,803.48
2018-04-10T00:35:58.602Z,803.41
2018-04-10T00:36:03.163Z,803.45
2018-04-10T00:36:07.151Z,803.46
2018-04-10T00:36:11.243Z,803.48
2018-04-10T00:36:15.549Z,803.46
2018-04-10T00:36:19.865Z,803.48
2018-04-10T00:36:23.957Z,803.48
2018-04-10T00:36:28.152Z,803.44
2018-04-10T00:36:32.462Z,803.49
2018-04-10T00:36:36.550Z,803.44
2018-04-10T00:36:40.750Z,803.46
2018-04-10T00:36:44.845Z,803.49
2018-04-10T00:36:48.933Z,803.43
2018-04-10T00:36:53.134Z,803.47
2018-04-10T00:36:57.123Z,803.47
2018-04-10T00:37:01.322Z,803.44
2018-04-10T00:37:05.622Z,803.43
2018-04-10T00:37:09.823Z,803.46
2018-04-10T00:37:14.019Z,803.49
2018-04-10T00:37:18.001Z,803.49
2018-04-10T00:37:22.242Z,803.43
2018-04-10T00:37:26.444Z,803.49
2018-04-10T00:37:30.537Z,803.43
2018-04-10T00:37:34.735Z,803.46
2018-04-10T00:37:39.037Z,803.47
2018-04-10T00:37:43.125Z,803.44
2018-04-10T00:37:47.430Z,803.47
2018-04-10T00:37:51.628Z,803.46
2018-04-10T00:37:55.934Z,803.45
2018-04-10T00:38:00.137Z,803.44
2018-04-10T00:38:04.499Z,803.44
2018-04-10T00:38:08.807Z,803.44
2018-04-10T00:38:12.903Z,803.45
2018-04-10T00:38:16.995Z,803.44
2018-04-10T00:38:21.085Z,803.46
2018-04-10T00:38:25.392Z,803.45
2018-04-10T00:38:29.381Z,803.45
2018-04-10T00:38:33.476Z,803.49
2018-04-10T00:38:37.569Z,803.4
2018-04-10T00:38:41.770Z,803.45
2018-04-10T00:38:46.070Z,803.41
2018-04-10T00:38:50.159Z,803.45
2018-04-10T00:38:54.359Z,803.44
2018-04-10T00:38:58.558Z,803.41
2018-04-10T00:39:02.754Z,803.39
2018-04-10T00:39:06.842Z,803.4
2018-04-10T00:39:11.049Z,803.4
2018-04-10T00:39:15.246Z,803.4
2018-04-10T00:39:19.349Z,803.38
2018-04-10T00:39:23.449Z,803.38
2018-04-10T00:39:27.332Z,803.39
2018-04-10T00:39:31.530Z,803.39
2018-04-10T00:39:35.840Z,803.39
2018-04-10T00:39:39.933Z,803.38
2018-04-10T00:39:44.136Z,803.39
2018-04-10T00:39:48.440Z,803.38
2018-04-10T00:39:52.635Z,803.36
2018-04-10T00:39:56.627Z,803.32
2018-04-10T00:40:00.939Z,803.31
2018-04-10T00:40:05.253Z,803.33
2018-04-10T00:40:09.343Z,803.35
2018-04-10T00:40:13.430Z,803.36
2018-04-10T00:40:17.732Z,803.33
2018-04-10T00:40:22.034Z,803.28
2018-04-10T00:40:26.272Z,803.34
2018-04-10T00:40:30.474Z,803.33
2018-04-10T00:40:34.778Z,803.34
2018-04-10T00:40:38.978Z,803.34
2018-04-10T00:40:43.283Z,803.32
2018-04-10T00:40:47.387Z,803.32
2018-04-10T00:40:51.474Z,803.33
2018-04-10T00:40:55.563Z,803.34
2018-04-10T00:40:59.548Z,803.31
2018-04-10T00:41:03.730Z,803.31
2018-04-10T00:41:07.717Z,803.32
2018-04-10T00:41:11.819Z,803.31
2018-04-10T00:41:16.017Z,803.29
2018-04-10T00:41:20.011Z,803.31
2018-04-10T00:41:24.101Z,803.31
2018-04-10T00:41:28.197Z,803.32
2018-04-10T00:41:32.396Z,803.32
2018-04-10T00:41:36.599Z,803.28
2018-04-10T00:41:40.692Z,803.3
2018-04-10T00:41:44.891Z,803.28
2018-04-10T00:41:49.229Z,803.3
2018-04-10T00:41:53.319Z,803.28
2018-04-10T00:41:57.623Z,803.29
2018-04-10T00:42:01.725Z,803.26
2018-04-10T00:42:05.924Z,803.28
2018-04-10T00:42:09.807Z,803.27
2018-04-10T00:42:13.792Z,803.26
2018-04-10T00:42:17.891Z,803.27
2018-04-10T00:42:22.197Z,803.21
2018-04-10T00:42:26.183Z,803.2
2018-04-10T00:42:30.170Z,803.2
2018-04-10T00:42:34.475Z,803.22
2018-04-10T00:42:38.569Z,803.22
2018-04-10T00:42:42.446Z,803.23
2018-04-10T00:42:46.756Z,803.26
2018-04-10T00:42:50.844Z,803.24
2018-04-10T00:42:55.050Z,803.25
2018-04-10T00:42:59.360Z,803.24
2018-04-10T00:43:03.357Z,803.23
2018-04-10T00:43:07.559Z,803.23
2018-04-10T00:43:11.542Z,803.24
2018-04-10T00:43:15.533Z,803.25
2018-04-10T00:43:19.524Z,803.18
2018-04-10T00:43:23.514Z,803.18
2018-04-10T00:43:27.745Z,803.23
2018-04-10T00:43:31.949Z,803.23
2018-04-10T00:43:36.047Z,803.19
2018-04-10T00:43:40.356Z,803.16
2018-04-10T00:43:44.652Z,803.2
2018-04-10T00:43:48.740Z,803.19
2018-04-10T00:43:52.933Z,803.19
2018-04-10T00:43:57.248Z,803.18
2018-04-10T00:44:01.451Z,803.19
2018-04-10T00:44:05.656Z,803.18
2018-04-10T00:44:09.854Z,803.18
2018-04-10T00:44:14.048Z,803.19
2018-04-10T00:44:18.141Z,803.16
2018-04-10T00:44:22.446Z,803.16
2018-04-10T00:44:26.539Z,803.2
2018-04-10T00:44:30.850Z,803.18
2018-04-10T00:44:35.155Z,803.17
2018-04-10T00:44:39.141Z,803.18
2018-04-10T00:44:43.342Z,803.17
2018-04-10T00:44:47.435Z,803.14
2018-04-10T00:44:51.743Z,803.17
2018-04-10T00:44:55.832Z,803.14
2018-04-10T00:44:59.929Z,803.16
2018-04-10T00:45:04.233Z,803.16
2018-04-10T00:45:08.436Z,803.14
2018-04-10T00:45:12.638Z,803.14
2018-04-10T00:45:16.836Z,803.11
2018-04-10T00:45:21.039Z,803.12
2018-04-10T00:45:24.918Z,803.13
2018-04-10T00:45:28.904Z,803.13
2018-04-10T00:45:32.992Z,803.11
2018-04-10T00:45:37.299Z,803.09
2018-04-10T00:45:41.495Z,803.08
2018-04-10T00:45:45.696Z,803.07
2018-04-10T00:45:49.786Z,803.1
2018-04-10T00:45:53.771Z,803.1
2018-04-10T00:45:57.863Z,803.07
2018-04-10T00:46:02.060Z,803.07
2018-04-10T00:46:06.263Z,803.07
2018-04-10T00:46:10.154Z,803.05
2018-04-10T00:46:14.244Z,803.02
2018-04-10T00:46:18.448Z,803.01
2018-04-10T00:46:22.765Z,803.01
2018-04-10T00:46:26.867Z,802.97
2018-04-10T00:46:30.873Z,802.99
2018-04-10T00:46:35.077Z,802.95
2018-04-10T00:46:39.172Z,802.96
2018-04-10T00:46:43.371Z,803
2018-04-10T00:46:47.467Z,803.02
2018-04-10T00:46:51.450Z,802.99
2018-04-10T00:46:55.544Z,803.01
2018-04-10T00:46:59.634Z,803
2018-04-10T00:47:04.034Z,802.97
2018-04-10T00:47:08.236Z,802.91
2018-04-10T00:47:12.434Z,802.92
2018-04-10T00:47:16.629Z,802.94
2018-04-10T00:47:20.726Z,802.94
2018-04-10T00:47:25.038Z,802.93
2018-04-10T00:47:28.913Z,802.93
2018-04-10T00:47:33.000Z,802.93
2018-04-10T00:47:37.302Z,802.85
2018-04-10T00:47:41.395Z,802.88
2018-04-10T00:47:45.383Z,802.89
2018-04-10T00:47:49.581Z,802.88
2018-04-10T00:47:53.783Z,802.87
2018-04-10T00:47:57.767Z,802.86
2018-04-10T00:48:01.961Z,802.82
2018-04-10T00:48:06.168Z,802.85
2018-04-10T00:48:10.154Z,802.82
2018-04-10T00:48:14.352Z,802.85
2018-04-10T00:48:18.659Z,802.81
2018-04-10T00:48:22.967Z,802.77
2018-04-10T00:48:27.063Z,802.76
2018-04-10T00:48:31.261Z,802.79
2018-04-10T00:48:35.625Z,802.8
2018-04-10T00:48:39.828Z,802.77
2018-04-10T00:48:44.025Z,802.75
2018-04-10T00:48:48.224Z,802.7
2018-04-10T00:48:52.319Z,802.78
2018-04-10T00:48:56.526Z,802.73
2018-04-10T00:49:00.881Z,802.71
2018-04-10T00:49:04.973Z,802.74
2018-04-10T00:49:08.957Z,802.71
2018-04-10T00:49:13.158Z,802.67
2018-04-10T00:49:17.353Z,802.67
2018-04-10T00:49:21.556Z,802.71
2018-04-10T00:49:25.759Z,802.67
2018-04-10T00:49:29.862Z,802.68
2018-04-10T00:49:33.951Z,802.67
2018-04-10T00:49:38.257Z,802.67
2018-04-10T00:49:42.466Z,802.63
2018-04-10T00:49:46.572Z,802.67
2018-04-10T00:49:50.882Z,802.67
2018-04-10T00:49:55.220Z,802.61
2018-04-10T00:49:59.533Z,802.63
2018-04-10T00:50:03.307Z,802.61
2018-04-10T00:50:07.511Z,802.59
2018-04-10T00:50:11.496Z,802.57
2018-04-10T00:50:15.798Z,802.59
2018-04-10T00:50:19.793Z,802.6
2018-04-10T00:50:23.924Z,802.59
2018-04-10T00:50:28.017Z,802.55
2018-04-10T00:50:32.211Z,802.56
2018-04-10T00:50:36.309Z,802.55
2018-04-10T00:50:40.508Z,802.55
2018-04-10T00:50:44.603Z,802.55
2018-04-10T00:50:48.800Z,802.52
2018-04-10T00:50:53.116Z,802.51
2018-04-10T00:50:57.217Z,802.52
2018-04-10T00:51:01.311Z,802.47
2018-04-10T00:51:05.510Z,802.48
2018-04-10T00:51:09.601Z,802.48
2018-04-10T00:51:13.798Z,802.47
2018-04-10T00:51:17.995Z,802.45
2018-04-10T00:51:22.194Z,802.44
2018-04-10T00:51:26.286Z,802.42
2018-04-10T00:51:30.373Z,802.42
2018-04-10T00:51:34.468Z,802.42
2018-04-10T00:51:38.664Z,802.4
2018-04-10T00:51:42.657Z,802.42
2018-04-10T00:51:46.646Z,802.4
2018-04-10T00:51:50.838Z,802.39
2018-04-10T00:51:55.034Z,802.38
2018-04-10T00:51:59.233Z,802.37